sensor_id;sensor_type;location;lat;lon;timestamp;P1;durP1;ratioP1;P2;durP2;ratioP2
80295;SDS011;74188;42.148;24.762;2023-11-19T07:25:46;5.28;;;2.67;;
80295;SDS011;74188;42.148;24.762;2023-11-19T07:28:12;4.78;;;2.50;;
80295;SDS011;74188;42.148;24.762;2023-11-19T07:30:38;4.85;;;2.20;;
80295;SDS011;74188;42.148;24.762;2023-11-19T07:33:04;5.97;;;2.67;;
80295;SDS011;74188;42.148;24.762;2023-11-19T07:35:30;6.28;;;2.47;;
80295;SDS011;74188;42.148;24.762;2023-11-19T07:37:57;5.90;;;2.33;;
80295;SDS011;74188;42.148;24.762;2023-11-19T07:40:23;5.50;;;2.53;;
80295;SDS011;74188;42.148;24.762;2023-11-19T07:42:49;4.70;;;2.38;;
80295;SDS011;74188;42.148;24.762;2023-11-19T07:45:15;6.35;;;2.47;;
80295;SDS011;74188;42.148;24.762;2023-11-19T07:47:41;4.93;;;2.45;;
80295;SDS011;74188;42.148;24.762;2023-11-19T07:50:09;4.75;;;2.00;;
80295;SDS011;74188;42.148;24.762;2023-11-19T07:52:35;4.65;;;2.05;;
80295;SDS011;74188;42.148;24.762;2023-11-19T07:55:02;4.28;;;1.90;;
80295;SDS011;74188;42.148;24.762;2023-11-19T07:57:28;4.43;;;2.10;;
80295;SDS011;74188;42.148;24.762;2023-11-19T07:59:56;4.28;;;2.10;;
80295;SDS011;74188;42.148;24.762;2023-11-19T08:02:22;4.97;;;2.50;;
80295;SDS011;74188;42.148;24.762;2023-11-19T08:04:49;4.55;;;2.30;;
80295;SDS011;74188;42.148;24.762;2023-11-19T08:09:42;4.10;;;1.90;;
80295;SDS011;74188;42.148;24.762;2023-11-19T08:12:08;4.30;;;2.40;;
80295;SDS011;74188;42.148;24.762;2023-11-19T08:14:34;4.40;;;2.30;;
80295;SDS011;74188;42.148;24.762;2023-11-19T08:17:02;5.10;;;2.58;;
80295;SDS011;74188;42.148;24.762;2023-11-19T08:19:28;4.45;;;2.13;;
80295;SDS011;74188;42.148;24.762;2023-11-19T08:21:53;4.95;;;2.20;;
80295;SDS011;74188;42.148;24.762;2023-11-19T08:24:19;5.15;;;2.50;;
80295;SDS011;74188;42.148;24.762;2023-11-19T08:26:45;4.32;;;2.30;;
80295;SDS011;74188;42.148;24.762;2023-11-19T08:29:10;5.60;;;2.30;;
80295;SDS011;74188;42.148;24.762;2023-11-19T08:31:36;5.85;;;2.30;;
80295;SDS011;74188;42.148;24.762;2023-11-19T08:34:02;4.88;;;2.45;;
80295;SDS011;74188;42.148;24.762;2023-11-19T08:36:27;4.60;;;2.40;;
80295;SDS011;74188;42.148;24.762;2023-11-19T08:38:53;5.70;;;2.72;;
80295;SDS011;74188;42.148;24.762;2023-11-19T08:41:19;5.25;;;2.47;;
80295;SDS011;74188;42.148;24.762;2023-11-19T08:43:46;4.57;;;2.30;;
80295;SDS011;74188;42.148;24.762;2023-11-19T08:46:12;4.93;;;2.50;;
80295;SDS011;74188;42.148;24.762;2023-11-19T08:48:38;5.90;;;2.70;;
80295;SDS011;74188;42.148;24.762;2023-11-19T08:51:05;5.30;;;2.80;;
80295;SDS011;74188;42.148;24.762;2023-11-19T08:53:31;5.10;;;2.58;;
80295;SDS011;74188;42.148;24.762;2023-11-19T08:55:57;5.80;;;2.60;;
80295;SDS011;74188;42.148;24.762;2023-11-19T08:58:22;8.05;;;2.72;;
80295;SDS011;74188;42.148;24.762;2023-11-19T09:00:48;6.30;;;2.63;;
80295;SDS011;74188;42.148;24.762;2023-11-19T09:03:13;4.90;;;2.72;;
80295;SDS011;74188;42.148;24.762;2023-11-19T09:05:39;4.68;;;2.40;;
80295;SDS011;74188;42.148;24.762;2023-11-19T09:08:06;5.00;;;2.50;;
80295;SDS011;74188;42.148;24.762;2023-11-19T09:10:31;5.10;;;2.10;;
80295;SDS011;74188;42.148;24.762;2023-11-19T09:12:57;5.60;;;2.30;;
80295;SDS011;74188;42.148;24.762;2023-11-19T09:15:23;6.05;;;2.28;;
80295;SDS011;74188;42.148;24.762;2023-11-19T09:17:49;6.32;;;2.30;;
80295;SDS011;74188;42.148;24.762;2023-11-19T09:20:14;7.63;;;2.30;;
80295;SDS011;74188;42.148;24.762;2023-11-19T09:22:41;4.78;;;2.30;;
80295;SDS011;74188;42.148;24.762;2023-11-19T09:25:07;6.18;;;2.50;;
80295;SDS011;74188;42.148;24.762;2023-11-19T09:27:33;5.80;;;2.70;;
80295;SDS011;74188;42.148;24.762;2023-11-19T09:29:58;6.88;;;2.78;;
80295;SDS011;74188;42.148;24.762;2023-11-19T09:32:24;5.38;;;2.90;;
80295;SDS011;74188;42.148;24.762;2023-11-19T09:34:50;6.53;;;2.45;;
80295;SDS011;74188;42.148;24.762;2023-11-19T09:37:16;4.45;;;2.33;;
80295;SDS011;74188;42.148;24.762;2023-11-19T09:39:42;5.22;;;2.30;;
80295;SDS011;74188;42.148;24.762;2023-11-19T09:42:10;5.03;;;2.50;;
80295;SDS011;74188;42.148;24.762;2023-11-19T09:44:39;5.47;;;3.03;;
80295;SDS011;74188;42.148;24.762;2023-11-19T09:47:08;8.80;;;4.18;;
80295;SDS011;74188;42.148;24.762;2023-11-19T09:49:35;5.30;;;2.60;;
80295;SDS011;74188;42.148;24.762;2023-11-19T09:52:01;5.85;;;2.40;;
80295;SDS011;74188;42.148;24.762;2023-11-19T09:54:27;5.50;;;2.40;;
80295;SDS011;74188;42.148;24.762;2023-11-19T09:56:54;4.53;;;2.30;;
80295;SDS011;74188;42.148;24.762;2023-11-19T09:59:25;4.55;;;2.15;;
80295;SDS011;74188;42.148;24.762;2023-11-19T10:01:51;4.43;;;2.13;;
80295;SDS011;74188;42.148;24.762;2023-11-19T10:04:17;4.57;;;2.00;;
80295;SDS011;74188;42.148;24.762;2023-11-19T10:06:44;6.57;;;2.13;;
80295;SDS011;74188;42.148;24.762;2023-11-19T10:09:11;5.05;;;2.38;;
80295;SDS011;74188;42.148;24.762;2023-11-19T10:11:38;4.53;;;2.30;;
80295;SDS011;74188;42.148;24.762;2023-11-19T10:14:03;4.63;;;2.33;;
80295;SDS011;74188;42.148;24.762;2023-11-19T10:16:30;4.53;;;2.38;;
80295;SDS011;74188;42.148;24.762;2023-11-19T10:18:58;5.10;;;2.53;;
80295;SDS011;74188;42.148;24.762;2023-11-19T10:21:24;4.72;;;2.40;;
80295;SDS011;74188;42.148;24.762;2023-11-19T10:23:50;4.70;;;2.53;;
80295;SDS011;74188;42.148;24.762;2023-11-19T10:26:18;4.68;;;2.60;;
80295;SDS011;74188;42.148;24.762;2023-11-19T10:28:45;5.30;;;2.40;;
80295;SDS011;74188;42.148;24.762;2023-11-19T10:31:15;5.32;;;2.67;;
80295;SDS011;74188;42.148;24.762;2023-11-19T10:33:42;5.50;;;2.22;;
80295;SDS011;74188;42.148;24.762;2023-11-19T10:36:10;7.90;;;2.80;;
80295;SDS011;74188;42.148;24.762;2023-11-19T10:38:37;6.53;;;2.43;;
80295;SDS011;74188;42.148;24.762;2023-11-19T10:41:03;4.68;;;2.30;;
80295;SDS011;74188;42.148;24.762;2023-11-19T10:43:30;4.97;;;2.50;;
80295;SDS011;74188;42.148;24.762;2023-11-19T10:46:08;5.15;;;2.80;;
80295;SDS011;74188;42.148;24.762;2023-11-19T10:48:35;4.65;;;2.33;;
80295;SDS011;74188;42.148;24.762;2023-11-19T10:51:01;4.70;;;2.50;;
80295;SDS011;74188;42.148;24.762;2023-11-19T10:53:32;4.70;;;2.60;;
80295;SDS011;74188;42.148;24.762;2023-11-19T10:56:01;4.68;;;2.40;;
80295;SDS011;74188;42.148;24.762;2023-11-19T10:58:29;4.43;;;2.53;;
80295;SDS011;74188;42.148;24.762;2023-11-19T11:00:57;4.80;;;2.15;;
80295;SDS011;74188;42.148;24.762;2023-11-19T11:03:29;4.90;;;2.58;;
80295;SDS011;74188;42.148;24.762;2023-11-19T11:06:00;4.95;;;2.50;;
80295;SDS011;74188;42.148;24.762;2023-11-19T11:08:29;4.93;;;2.58;;
80295;SDS011;74188;42.148;24.762;2023-11-19T11:10:56;4.40;;;2.33;;
80295;SDS011;74188;42.148;24.762;2023-11-19T11:13:23;4.10;;;2.20;;
80295;SDS011;74188;42.148;24.762;2023-11-19T11:15:50;5.22;;;2.38;;
80295;SDS011;74188;42.148;24.762;2023-11-19T11:18:17;5.57;;;2.33;;
80295;SDS011;74188;42.148;24.762;2023-11-19T11:20:46;4.55;;;2.10;;
80295;SDS011;74188;42.148;24.762;2023-11-19T11:34:18;3.72;;;1.98;;
80295;SDS011;74188;42.148;24.762;2023-11-19T11:39:28;4.20;;;2.20;;
80295;SDS011;74188;42.148;24.762;2023-11-19T11:47:24;4.30;;;2.15;;
80295;SDS011;74188;42.148;24.762;2023-11-19T11:49:50;5.30;;;2.47;;
80295;SDS011;74188;42.148;24.762;2023-11-19T11:52:17;4.77;;;2.23;;
80295;SDS011;74188;42.148;24.762;2023-11-19T11:54:43;3.65;;;1.80;;
80295;SDS011;74188;42.148;24.762;2023-11-19T11:57:13;4.22;;;2.35;;
80295;SDS011;74188;42.148;24.762;2023-11-19T11:59:46;4.40;;;2.45;;
80295;SDS011;74188;42.148;24.762;2023-11-19T12:02:16;5.15;;;2.60;;
80295;SDS011;74188;42.148;24.762;2023-11-19T12:04:47;5.15;;;2.78;;
80295;SDS011;74188;42.148;24.762;2023-11-19T12:07:21;4.60;;;2.50;;
80295;SDS011;74188;42.148;24.762;2023-11-19T12:10:07;4.72;;;2.60;;
80295;SDS011;74188;42.148;24.762;2023-11-19T12:12:34;4.38;;;2.17;;
80295;SDS011;74188;42.148;24.762;2023-11-19T12:15:01;6.45;;;2.60;;
80295;SDS011;74188;42.148;24.762;2023-11-19T12:20:00;5.15;;;2.60;;
80295;SDS011;74188;42.148;24.762;2023-11-19T12:22:31;4.90;;;2.65;;
80295;SDS011;74188;42.148;24.762;2023-11-19T12:24:56;4.97;;;2.60;;
80295;SDS011;74188;42.148;24.762;2023-11-19T12:27:23;10.57;;;3.25;;
80295;SDS011;74188;42.148;24.762;2023-11-19T12:29:49;6.10;;;3.50;;
80295;SDS011;74188;42.148;24.762;2023-11-19T12:32:15;7.57;;;3.50;;
80295;SDS011;74188;42.148;24.762;2023-11-19T12:34:40;5.22;;;2.88;;
80295;SDS011;74188;42.148;24.762;2023-11-19T12:37:06;4.90;;;2.90;;
80295;SDS011;74188;42.148;24.762;2023-11-19T12:42:00;5.32;;;3.20;;
80295;SDS011;74188;42.148;24.762;2023-11-19T12:44:26;4.80;;;2.60;;
80295;SDS011;74188;42.148;24.762;2023-11-19T12:47:05;5.00;;;2.90;;
80295;SDS011;74188;42.148;24.762;2023-11-19T12:49:34;8.60;;;4.60;;
80295;SDS011;74188;42.148;24.762;2023-11-19T12:52:11;6.22;;;3.20;;
80295;SDS011;74188;42.148;24.762;2023-11-19T12:54:37;4.65;;;2.90;;
80295;SDS011;74188;42.148;24.762;2023-11-19T12:57:04;4.68;;;2.78;;
80295;SDS011;74188;42.148;24.762;2023-11-19T12:59:30;4.70;;;2.70;;
80295;SDS011;74188;42.148;24.762;2023-11-19T13:01:59;5.20;;;2.97;;
80295;SDS011;74188;42.148;24.762;2023-11-19T13:04:29;5.25;;;3.15;;
80295;SDS011;74188;42.148;24.762;2023-11-19T13:07:01;5.38;;;2.85;;
80295;SDS011;74188;42.148;24.762;2023-11-19T13:09:29;6.22;;;3.00;;
80295;SDS011;74188;42.148;24.762;2023-11-19T13:11:56;5.00;;;2.80;;
80295;SDS011;74188;42.148;24.762;2023-11-19T13:14:22;5.53;;;3.08;;
80295;SDS011;74188;42.148;24.762;2023-11-19T13:16:48;8.98;;;3.00;;
80295;SDS011;74188;42.148;24.762;2023-11-19T13:19:14;4.90;;;3.00;;
80295;SDS011;74188;42.148;24.762;2023-11-19T13:21:58;5.53;;;3.17;;
80295;SDS011;74188;42.148;24.762;2023-11-19T13:24:23;4.85;;;2.85;;
80295;SDS011;74188;42.148;24.762;2023-11-19T13:26:52;5.85;;;3.25;;
80295;SDS011;74188;42.148;24.762;2023-11-19T13:29:18;4.88;;;2.90;;
80295;SDS011;74188;42.148;24.762;2023-11-19T13:31:46;5.72;;;2.85;;
80295;SDS011;74188;42.148;24.762;2023-11-19T13:34:12;5.93;;;3.00;;
80295;SDS011;74188;42.148;24.762;2023-11-19T13:36:38;5.40;;;2.92;;
80295;SDS011;74188;42.148;24.762;2023-11-19T13:39:04;5.50;;;2.92;;
80295;SDS011;74188;42.148;24.762;2023-11-19T13:41:30;5.32;;;2.65;;
80295;SDS011;74188;42.148;24.762;2023-11-19T13:43:56;6.07;;;3.30;;
80295;SDS011;74188;42.148;24.762;2023-11-19T13:46:22;6.20;;;2.75;;
80295;SDS011;74188;42.148;24.762;2023-11-19T13:48:48;6.40;;;3.00;;
80295;SDS011;74188;42.148;24.762;2023-11-19T13:51:14;5.93;;;3.08;;
80295;SDS011;74188;42.148;24.762;2023-11-19T13:53:40;5.22;;;2.97;;
80295;SDS011;74188;42.148;24.762;2023-11-19T13:56:06;5.22;;;3.08;;
80295;SDS011;74188;42.148;24.762;2023-11-19T13:58:33;5.93;;;2.88;;
80295;SDS011;74188;42.148;24.762;2023-11-19T14:00:58;6.80;;;3.15;;
80295;SDS011;74188;42.148;24.762;2023-11-19T14:03:24;5.47;;;3.10;;
80295;SDS011;74188;42.148;24.762;2023-11-19T14:05:50;5.72;;;3.22;;
80295;SDS011;74188;42.148;24.762;2023-11-19T14:08:17;5.83;;;3.30;;
80295;SDS011;74188;42.148;24.762;2023-11-19T14:10:43;5.95;;;3.22;;
80295;SDS011;74188;42.148;24.762;2023-11-19T14:13:08;6.88;;;3.50;;
80295;SDS011;74188;42.148;24.762;2023-11-19T14:15:34;8.65;;;3.38;;
80295;SDS011;74188;42.148;24.762;2023-11-19T14:18:00;5.85;;;3.30;;
80295;SDS011;74188;42.148;24.762;2023-11-19T14:20:27;7.38;;;3.20;;
80295;SDS011;74188;42.148;24.762;2023-11-19T14:22:53;6.20;;;3.50;;
80295;SDS011;74188;42.148;24.762;2023-11-19T14:25:19;5.57;;;3.10;;
80295;SDS011;74188;42.148;24.762;2023-11-19T14:27:48;5.43;;;3.17;;
80295;SDS011;74188;42.148;24.762;2023-11-19T14:30:16;6.18;;;3.70;;
80295;SDS011;74188;42.148;24.762;2023-11-19T14:32:42;6.70;;;4.20;;
80295;SDS011;74188;42.148;24.762;2023-11-19T14:35:13;6.43;;;3.85;;
80295;SDS011;74188;42.148;24.762;2023-11-19T14:37:39;7.15;;;3.70;;
80295;SDS011;74188;42.148;24.762;2023-11-19T14:40:04;7.05;;;3.60;;
80295;SDS011;74188;42.148;24.762;2023-11-19T14:42:32;6.50;;;3.73;;
80295;SDS011;74188;42.148;24.762;2023-11-19T14:44:57;6.45;;;3.47;;
80295;SDS011;74188;42.148;24.762;2023-11-19T14:47:26;6.00;;;3.22;;
80295;SDS011;74188;42.148;24.762;2023-11-19T14:49:52;5.78;;;3.30;;
80295;SDS011;74188;42.148;24.762;2023-11-19T14:52:17;6.28;;;3.33;;
80295;SDS011;74188;42.148;24.762;2023-11-19T14:54:46;6.43;;;3.45;;
80295;SDS011;74188;42.148;24.762;2023-11-19T14:57:12;7.63;;;3.55;;
80295;SDS011;74188;42.148;24.762;2023-11-19T14:59:56;6.15;;;3.10;;
80295;SDS011;74188;42.148;24.762;2023-11-19T15:02:21;5.28;;;3.22;;
80295;SDS011;74188;42.148;24.762;2023-11-19T15:04:47;6.10;;;3.50;;
80295;SDS011;74188;42.148;24.762;2023-11-19T15:07:12;8.18;;;4.00;;
80295;SDS011;74188;42.148;24.762;2023-11-19T15:09:38;8.07;;;4.60;;
80295;SDS011;74188;42.148;24.762;2023-11-19T15:12:07;8.15;;;4.28;;
80295;SDS011;74188;42.148;24.762;2023-11-19T15:14:43;8.07;;;4.15;;
80295;SDS011;74188;42.148;24.762;2023-11-19T15:17:08;7.25;;;4.20;;
80295;SDS011;74188;42.148;24.762;2023-11-19T15:19:34;7.47;;;4.00;;
80295;SDS011;74188;42.148;24.762;2023-11-19T15:22:00;8.23;;;4.45;;
80295;SDS011;74188;42.148;24.762;2023-11-19T15:24:29;7.38;;;4.20;;
80295;SDS011;74188;42.148;24.762;2023-11-19T15:26:55;7.18;;;4.28;;
80295;SDS011;74188;42.148;24.762;2023-11-19T15:29:21;7.47;;;4.47;;
80295;SDS011;74188;42.148;24.762;2023-11-19T15:31:48;7.47;;;3.97;;
80295;SDS011;74188;42.148;24.762;2023-11-19T15:34:13;7.30;;;4.10;;
80295;SDS011;74188;42.148;24.762;2023-11-19T15:36:39;7.88;;;4.32;;
80295;SDS011;74188;42.148;24.762;2023-11-19T15:39:05;7.43;;;3.70;;
80295;SDS011;74188;42.148;24.762;2023-11-19T15:41:31;9.60;;;4.05;;
80295;SDS011;74188;42.148;24.762;2023-11-19T15:43:57;7.75;;;4.20;;
80295;SDS011;74188;42.148;24.762;2023-11-19T15:46:22;7.38;;;4.22;;
80295;SDS011;74188;42.148;24.762;2023-11-19T15:48:48;7.28;;;3.85;;
80295;SDS011;74188;42.148;24.762;2023-11-19T15:51:14;8.20;;;4.00;;
80295;SDS011;74188;42.148;24.762;2023-11-19T15:53:39;7.20;;;4.18;;
80295;SDS011;74188;42.148;24.762;2023-11-19T15:56:05;8.25;;;4.80;;
80295;SDS011;74188;42.148;24.762;2023-11-19T15:58:31;9.27;;;4.50;;
80295;SDS011;74188;42.148;24.762;2023-11-19T16:00:57;7.82;;;4.20;;
80295;SDS011;74188;42.148;24.762;2023-11-19T16:03:25;8.45;;;4.30;;
80295;SDS011;74188;42.148;24.762;2023-11-19T16:05:51;8.05;;;4.03;;
80295;SDS011;74188;42.148;24.762;2023-11-19T16:08:17;9.00;;;4.20;;
80295;SDS011;74188;42.148;24.762;2023-11-19T16:10:42;8.18;;;4.32;;
80295;SDS011;74188;42.148;24.762;2023-11-19T16:13:09;8.55;;;4.47;;
80295;SDS011;74188;42.148;24.762;2023-11-19T16:15:35;10.95;;;4.47;;
80295;SDS011;74188;42.148;24.762;2023-11-19T16:18:01;8.35;;;4.28;;
80295;SDS011;74188;42.148;24.762;2023-11-19T16:20:26;8.70;;;4.28;;
80295;SDS011;74188;42.148;24.762;2023-11-19T16:22:52;7.57;;;4.00;;
80295;SDS011;74188;42.148;24.762;2023-11-19T16:25:18;8.55;;;3.92;;
80295;SDS011;74188;42.148;24.762;2023-11-19T16:27:43;8.00;;;4.53;;
80295;SDS011;74188;42.148;24.762;2023-11-19T16:30:09;7.43;;;3.80;;
80295;SDS011;74188;42.148;24.762;2023-11-19T16:32:47;9.18;;;4.47;;
80295;SDS011;74188;42.148;24.762;2023-11-19T16:35:20;8.75;;;4.32;;
80295;SDS011;74188;42.148;24.762;2023-11-19T16:37:46;8.45;;;4.55;;
80295;SDS011;74188;42.148;24.762;2023-11-19T16:40:12;10.25;;;4.65;;
80295;SDS011;74188;42.148;24.762;2023-11-19T16:42:38;9.00;;;4.60;;
80295;SDS011;74188;42.148;24.762;2023-11-19T16:45:04;8.82;;;4.30;;
80295;SDS011;74188;42.148;24.762;2023-11-19T16:47:31;8.40;;;3.95;;
80295;SDS011;74188;42.148;24.762;2023-11-19T16:49:57;8.18;;;4.10;;
80295;SDS011;74188;42.148;24.762;2023-11-19T16:52:23;7.95;;;3.92;;
80295;SDS011;74188;42.148;24.762;2023-11-19T16:54:50;9.43;;;4.10;;
80295;SDS011;74188;42.148;24.762;2023-11-19T16:57:16;7.00;;;3.60;;
80295;SDS011;74188;42.148;24.762;2023-11-19T16:59:42;7.57;;;3.97;;
80295;SDS011;74188;42.148;24.762;2023-11-19T17:02:08;8.20;;;4.07;;
80295;SDS011;74188;42.148;24.762;2023-11-19T17:04:36;7.80;;;3.92;;
80295;SDS011;74188;42.148;24.762;2023-11-19T17:07:02;7.45;;;3.88;;
80295;SDS011;74188;42.148;24.762;2023-11-19T17:09:28;9.57;;;4.90;;
80295;SDS011;74188;42.148;24.762;2023-11-19T17:11:53;7.55;;;3.53;;
80295;SDS011;74188;42.148;24.762;2023-11-19T17:14:19;8.10;;;4.28;;
80295;SDS011;74188;42.148;24.762;2023-11-19T17:16:45;8.60;;;4.20;;
80295;SDS011;74188;42.148;24.762;2023-11-19T17:19:11;7.80;;;3.95;;
80295;SDS011;74188;42.148;24.762;2023-11-19T17:21:37;8.15;;;3.80;;
80295;SDS011;74188;42.148;24.762;2023-11-19T17:24:02;7.90;;;4.20;;
80295;SDS011;74188;42.148;24.762;2023-11-19T17:26:28;7.18;;;3.60;;
80295;SDS011;74188;42.148;24.762;2023-11-19T17:28:54;8.23;;;4.25;;
80295;SDS011;74188;42.148;24.762;2023-11-19T17:31:19;7.20;;;4.07;;
80295;SDS011;74188;42.148;24.762;2023-11-19T17:33:45;8.55;;;3.80;;
80295;SDS011;74188;42.148;24.762;2023-11-19T17:36:11;7.93;;;4.03;;
80295;SDS011;74188;42.148;24.762;2023-11-19T17:38:37;8.30;;;3.70;;
80295;SDS011;74188;42.148;24.762;2023-11-19T17:41:03;7.60;;;4.05;;
80295;SDS011;74188;42.148;24.762;2023-11-19T17:43:29;8.32;;;4.40;;
80295;SDS011;74188;42.148;24.762;2023-11-19T17:45:55;8.43;;;4.63;;
80295;SDS011;74188;42.148;24.762;2023-11-19T17:48:25;9.07;;;5.00;;
80295;SDS011;74188;42.148;24.762;2023-11-19T17:50:50;9.75;;;4.40;;
80295;SDS011;74188;42.148;24.762;2023-11-19T17:53:20;12.90;;;3.70;;
80295;SDS011;74188;42.148;24.762;2023-11-19T17:55:46;5.80;;;2.78;;
80295;SDS011;74188;42.148;24.762;2023-11-19T17:58:11;5.80;;;2.90;;
80295;SDS011;74188;42.148;24.762;2023-11-19T18:00:37;6.60;;;3.30;;
80295;SDS011;74188;42.148;24.762;2023-11-19T18:03:03;6.03;;;3.28;;
80295;SDS011;74188;42.148;24.762;2023-11-19T18:05:29;6.25;;;3.17;;
80295;SDS011;74188;42.148;24.762;2023-11-19T18:07:55;6.68;;;3.58;;
80295;SDS011;74188;42.148;24.762;2023-11-19T18:10:21;6.00;;;2.90;;
80295;SDS011;74188;42.148;24.762;2023-11-19T18:12:47;5.80;;;3.03;;
80295;SDS011;74188;42.148;24.762;2023-11-19T18:15:13;6.38;;;3.30;;
80295;SDS011;74188;42.148;24.762;2023-11-19T18:17:39;8.85;;;4.00;;
80295;SDS011;74188;42.148;24.762;2023-11-19T18:20:12;7.75;;;4.00;;
80295;SDS011;74188;42.148;24.762;2023-11-19T18:22:39;7.15;;;3.78;;
80295;SDS011;74188;42.148;24.762;2023-11-19T18:25:06;8.30;;;4.10;;
80295;SDS011;74188;42.148;24.762;2023-11-19T18:27:35;7.20;;;3.50;;
80295;SDS011;74188;42.148;24.762;2023-11-19T18:30:03;8.13;;;3.80;;
80295;SDS011;74188;42.148;24.762;2023-11-19T18:32:31;6.63;;;3.58;;
80295;SDS011;74188;42.148;24.762;2023-11-19T18:34:56;6.63;;;3.58;;
80295;SDS011;74188;42.148;24.762;2023-11-19T18:37:23;6.05;;;3.22;;
80295;SDS011;74188;42.148;24.762;2023-11-19T18:39:48;6.20;;;3.08;;
80295;SDS011;74188;42.148;24.762;2023-11-19T18:42:14;7.18;;;3.25;;
80295;SDS011;74188;42.148;24.762;2023-11-19T18:44:40;5.80;;;2.92;;
80295;SDS011;74188;42.148;24.762;2023-11-19T18:47:05;6.30;;;3.22;;
80295;SDS011;74188;42.148;24.762;2023-11-19T18:49:32;7.63;;;3.67;;
80295;SDS011;74188;42.148;24.762;2023-11-19T18:51:57;6.82;;;3.55;;
80295;SDS011;74188;42.148;24.762;2023-11-19T18:54:23;6.97;;;3.40;;
80295;SDS011;74188;42.148;24.762;2023-11-19T18:56:48;6.22;;;3.20;;
80295;SDS011;74188;42.148;24.762;2023-11-19T18:59:14;6.85;;;3.67;;
80295;SDS011;74188;42.148;24.762;2023-11-19T19:01:40;7.38;;;3.67;;
80295;SDS011;74188;42.148;24.762;2023-11-19T19:04:08;7.13;;;3.20;;
80295;SDS011;74188;42.148;24.762;2023-11-19T19:06:35;6.95;;;3.20;;
80295;SDS011;74188;42.148;24.762;2023-11-19T19:09:02;6.03;;;3.13;;
80295;SDS011;74188;42.148;24.762;2023-11-19T19:11:28;6.57;;;3.08;;
80295;SDS011;74188;42.148;24.762;2023-11-19T19:13:54;6.22;;;3.08;;
80295;SDS011;74188;42.148;24.762;2023-11-19T19:16:20;7.00;;;3.28;;
80295;SDS011;74188;42.148;24.762;2023-11-19T19:18:45;6.55;;;2.67;;
80295;SDS011;74188;42.148;24.762;2023-11-19T19:21:11;9.70;;;4.70;;
80295;SDS011;74188;42.148;24.762;2023-11-19T19:23:37;9.13;;;4.35;;
80295;SDS011;74188;42.148;24.762;2023-11-19T19:26:03;7.35;;;4.13;;
80295;SDS011;74188;42.148;24.762;2023-11-19T19:28:29;6.20;;;3.20;;
80295;SDS011;74188;42.148;24.762;2023-11-19T19:30:56;9.10;;;2.92;;
80295;SDS011;74188;42.148;24.762;2023-11-19T19:33:22;6.72;;;3.30;;
80295;SDS011;74188;42.148;24.762;2023-11-19T19:35:48;6.13;;;2.53;;
80295;SDS011;74188;42.148;24.762;2023-11-19T19:38:14;5.32;;;2.70;;
80295;SDS011;74188;42.148;24.762;2023-11-19T19:40:40;7.20;;;2.90;;
80295;SDS011;74188;42.148;24.762;2023-11-19T19:43:06;5.55;;;2.80;;
80295;SDS011;74188;42.148;24.762;2023-11-19T19:45:32;5.38;;;2.60;;
80295;SDS011;74188;42.148;24.762;2023-11-19T19:48:00;5.95;;;2.72;;
80295;SDS011;74188;42.148;24.762;2023-11-19T19:50:26;5.38;;;2.67;;
80295;SDS011;74188;42.148;24.762;2023-11-19T19:52:52;6.25;;;3.05;;
80295;SDS011;74188;42.148;24.762;2023-11-19T19:55:20;5.70;;;2.70;;
80295;SDS011;74188;42.148;24.762;2023-11-19T19:57:46;5.65;;;2.90;;
80295;SDS011;74188;42.148;24.762;2023-11-19T20:00:13;6.63;;;3.30;;
80295;SDS011;74188;42.148;24.762;2023-11-19T20:02:39;7.07;;;3.15;;
80295;SDS011;74188;42.148;24.762;2023-11-19T20:05:05;6.55;;;3.20;;
80295;SDS011;74188;42.148;24.762;2023-11-19T20:07:43;7.85;;;3.92;;
80295;SDS011;74188;42.148;24.762;2023-11-19T20:10:10;8.45;;;3.78;;
80295;SDS011;74188;42.148;24.762;2023-11-19T20:12:36;7.53;;;3.83;;
80295;SDS011;74188;42.148;24.762;2023-11-19T20:15:04;7.35;;;3.65;;
80295;SDS011;74188;42.148;24.762;2023-11-19T20:17:31;9.52;;;4.25;;
80295;SDS011;74188;42.148;24.762;2023-11-19T20:19:57;11.77;;;3.75;;
80295;SDS011;74188;42.148;24.762;2023-11-19T20:22:23;7.82;;;4.07;;
80295;SDS011;74188;42.148;24.762;2023-11-19T20:24:49;8.27;;;4.28;;
80295;SDS011;74188;42.148;24.762;2023-11-19T20:27:15;8.00;;;4.20;;
80295;SDS011;74188;42.148;24.762;2023-11-19T20:29:45;7.22;;;3.70;;
80295;SDS011;74188;42.148;24.762;2023-11-19T20:32:11;7.82;;;3.85;;
80295;SDS011;74188;42.148;24.762;2023-11-19T20:34:37;7.85;;;3.95;;
80295;SDS011;74188;42.148;24.762;2023-11-19T20:37:03;7.70;;;3.83;;
80295;SDS011;74188;42.148;24.762;2023-11-19T20:39:29;6.65;;;3.45;;
80295;SDS011;74188;42.148;24.762;2023-11-19T20:41:55;9.75;;;5.47;;
80295;SDS011;74188;42.148;24.762;2023-11-19T20:44:21;6.65;;;3.42;;
80295;SDS011;74188;42.148;24.762;2023-11-19T20:46:46;7.45;;;3.65;;
80295;SDS011;74188;42.148;24.762;2023-11-19T20:49:14;6.68;;;3.35;;
80295;SDS011;74188;42.148;24.762;2023-11-19T20:51:41;6.93;;;3.40;;
80295;SDS011;74188;42.148;24.762;2023-11-19T20:54:07;7.10;;;3.50;;
80295;SDS011;74188;42.148;24.762;2023-11-19T20:56:34;6.65;;;3.30;;
80295;SDS011;74188;42.148;24.762;2023-11-19T20:59:00;6.15;;;3.30;;
80295;SDS011;74188;42.148;24.762;2023-11-19T21:01:26;7.57;;;3.47;;
80295;SDS011;74188;42.148;24.762;2023-11-19T21:03:51;6.88;;;3.58;;
80295;SDS011;74188;42.148;24.762;2023-11-19T21:06:17;6.63;;;3.50;;
80295;SDS011;74188;42.148;24.762;2023-11-19T21:08:44;7.97;;;3.30;;
80295;SDS011;74188;42.148;24.762;2023-11-19T21:11:10;6.25;;;3.40;;
80295;SDS011;74188;42.148;24.762;2023-11-19T21:13:37;7.35;;;3.50;;
80295;SDS011;74188;42.148;24.762;2023-11-19T21:16:03;6.40;;;3.05;;
80295;SDS011;74188;42.148;24.762;2023-11-19T21:18:33;6.05;;;2.97;;
80295;SDS011;74188;42.148;24.762;2023-11-19T21:21:00;6.03;;;3.15;;
80295;SDS011;74188;42.148;24.762;2023-11-19T21:23:26;7.30;;;3.53;;
80295;SDS011;74188;42.148;24.762;2023-11-19T21:25:52;5.95;;;2.88;;
80295;SDS011;74188;42.148;24.762;2023-11-19T21:28:17;6.60;;;3.05;;
80295;SDS011;74188;42.148;24.762;2023-11-19T21:30:43;6.25;;;2.97;;
80295;SDS011;74188;42.148;24.762;2023-11-19T21:33:10;6.88;;;2.85;;
80295;SDS011;74188;42.148;24.762;2023-11-19T21:35:35;6.22;;;3.00;;
80295;SDS011;74188;42.148;24.762;2023-11-19T21:38:02;5.60;;;2.70;;
80295;SDS011;74188;42.148;24.762;2023-11-19T21:40:28;6.88;;;2.55;;
80295;SDS011;74188;42.148;24.762;2023-11-19T21:42:53;5.95;;;2.50;;
80295;SDS011;74188;42.148;24.762;2023-11-19T21:45:21;7.80;;;2.90;;
80295;SDS011;74188;42.148;24.762;2023-11-19T21:47:49;5.90;;;2.70;;
80295;SDS011;74188;42.148;24.762;2023-11-19T21:50:15;6.32;;;3.10;;
80295;SDS011;74188;42.148;24.762;2023-11-19T21:52:41;6.70;;;2.78;;
80295;SDS011;74188;42.148;24.762;2023-11-19T21:55:07;5.50;;;2.55;;
80295;SDS011;74188;42.148;24.762;2023-11-19T22:00:27;6.20;;;2.78;;
80295;SDS011;74188;42.148;24.762;2023-11-19T22:02:53;6.18;;;2.97;;
80295;SDS011;74188;42.148;24.762;2023-11-19T22:05:18;7.13;;;3.20;;
80295;SDS011;74188;42.148;24.762;2023-11-19T22:07:44;6.68;;;2.90;;
80295;SDS011;74188;42.148;24.762;2023-11-19T22:10:14;6.82;;;3.05;;
80295;SDS011;74188;42.148;24.762;2023-11-19T22:12:43;7.13;;;2.83;;
80295;SDS011;74188;42.148;24.762;2023-11-19T22:15:10;7.45;;;3.05;;
80295;SDS011;74188;42.148;24.762;2023-11-19T22:17:36;7.25;;;3.35;;
80295;SDS011;74188;42.148;24.762;2023-11-19T22:20:03;7.32;;;3.25;;
80295;SDS011;74188;42.148;24.762;2023-11-19T22:22:32;7.78;;;4.00;;
80295;SDS011;74188;42.148;24.762;2023-11-19T22:24:58;6.80;;;3.25;;